createdAt,value
2023-05-03T00:01:46.183Z,99.90
2023-05-03T00:06:48.544Z,99.90
2023-05-03T00:11:52.107Z,99.90
2023-05-03T00:16:54.101Z,99.90
2023-05-03T00:21:56.033Z,99.90
2023-05-03T00:26:59.700Z,99.90
2023-05-03T00:32:02.660Z,99.90
2023-05-03T00:37:05.071Z,99.90
2023-05-03T00:42:08.445Z,99.90
2023-05-03T00:47:11.090Z,99.90
2023-05-03T00:52:12.944Z,99.90
2023-05-03T00:57:16.733Z,99.90
2023-05-03T01:02:19.020Z,99.90
2023-05-03T01:07:31.254Z,99.90
2023-05-03T01:12:49.194Z,99.90
2023-05-03T01:17:55.194Z,99.90
2023-05-03T01:23:06.666Z,99.90
2023-05-03T01:28:10.511Z,99.90
2023-05-03T01:33:21.903Z,99.90
2023-05-03T01:38:24.664Z,99.90
2023-05-03T01:43:31.574Z,99.90
2023-05-03T01:48:33.597Z,99.90
2023-05-03T01:53:35.363Z,99.90
2023-05-03T01:58:38.919Z,99.90
2023-05-03T02:03:41.137Z,99.90
2023-05-03T02:08:42.818Z,99.90
2023-05-03T02:13:47.069Z,99.90
2023-05-03T02:18:48.998Z,99.90
2023-05-03T02:23:51.170Z,99.90
2023-05-03T02:28:56.161Z,99.90
2023-05-03T02:33:59.175Z,99.90
2023-05-03T02:39:01.511Z,99.90
2023-05-03T02:44:05.286Z,99.90
2023-05-03T02:49:07.421Z,99.90
2023-05-03T02:54:09.785Z,99.90
2023-05-03T02:59:13.056Z,99.90
2023-05-03T03:04:16.005Z,99.90
2023-05-03T03:09:18.109Z,99.90
2023-05-03T03:14:21.645Z,99.90
2023-05-03T03:19:23.758Z,99.90
2023-05-03T03:24:25.713Z,99.90
2023-05-03T03:29:30.362Z,99.90
2023-05-03T03:34:32.541Z,99.90
2023-05-03T03:39:34.781Z,99.90
2023-05-03T03:44:38.648Z,99.90
2023-05-03T03:49:41.421Z,99.90
2023-05-03T03:54:43.583Z,99.90
2023-05-03T03:59:46.944Z,99.90
2023-05-03T04:04:49.164Z,99.90
2023-05-03T04:09:51.204Z,99.90
2023-05-03T04:14:55.266Z,99.90
2023-05-03T04:19:58.979Z,99.90
2023-05-03T04:25:01.406Z,99.90
2023-05-03T04:30:05.746Z,99.90
2023-05-03T04:35:10.789Z,99.90
2023-05-03T04:40:13.472Z,99.90
2023-05-03T04:45:18.870Z,99.90
2023-05-03T04:50:21.286Z,99.90
2023-05-03T04:55:23.187Z,99.90
2023-05-03T05:00:26.664Z,99.90
2023-05-03T05:05:28.726Z,99.90
2023-05-03T05:10:30.957Z,99.90
2023-05-03T05:15:34.328Z,99.90
2023-05-03T05:20:36.571Z,99.90
2023-05-03T05:25:38.547Z,99.90
2023-05-03T05:30:42.221Z,99.90
2023-05-03T05:35:46.458Z,99.90
2023-05-03T05:40:48.394Z,99.90
2023-05-03T05:45:52.236Z,99.90
2023-05-03T05:50:54.558Z,99.90
2023-05-03T05:55:56.802Z,99.90
2023-05-03T06:01:01.578Z,99.90
2023-05-03T06:06:03.829Z,99.90
2023-05-03T06:11:05.799Z,99.90
2023-05-03T06:16:09.413Z,99.90
2023-05-03T06:21:12.116Z,99.90
2023-05-03T06:26:14.463Z,99.90
2023-05-03T06:31:18.157Z,99.90
2023-05-03T06:36:20.509Z,99.90
2023-05-03T06:41:22.481Z,99.90
2023-05-03T06:46:25.766Z,99.90
2023-05-03T06:51:29.950Z,99.90
2023-05-03T06:56:32.183Z,99.90
2023-05-03T07:01:36.108Z,99.90
2023-05-03T07:06:52.455Z,99.90
2023-05-03T07:11:57.736Z,99.90
2023-05-03T07:17:01.366Z,99.90
2023-05-03T07:22:04.024Z,99.90
2023-05-03T07:27:06.809Z,99.90
2023-05-03T07:32:10.781Z,99.90
2023-05-03T07:37:13.084Z,99.90
2023-05-03T07:42:15.426Z,99.90
2023-05-03T07:47:19.044Z,99.90
2023-05-03T07:52:21.582Z,99.90
2023-05-03T07:57:24.621Z,99.90
2023-05-03T08:02:28.441Z,99.90
2023-05-03T08:07:30.904Z,99.90
2023-05-03T08:12:32.890Z,99.90
2023-05-03T08:17:42.166Z,99.90
2023-05-03T08:22:45.401Z,99.90
2023-05-03T08:27:47.342Z,99.90
2023-05-03T08:32:51.706Z,99.90
2023-05-03T08:37:54.090Z,99.90
2023-05-03T08:42:57.931Z,99.90
2023-05-03T08:48:03.707Z,99.90
2023-05-03T08:53:06.373Z,99.90
2023-05-03T08:58:12.827Z,99.90
2023-05-03T09:03:16.844Z,99.90
2023-05-03T09:08:22.932Z,99.90
2023-05-03T09:13:31.803Z,99.90
2023-05-03T09:18:35.256Z,99.90
2023-05-03T09:23:37.568Z,99.90
2023-05-03T09:28:43.811Z,99.90
2023-05-03T09:33:47.192Z,99.90
2023-05-03T09:38:50.208Z,99.90
2023-05-03T09:43:55.637Z,99.90
2023-05-03T09:48:59.089Z,99.90
2023-05-03T09:54:01.373Z,99.90
2023-05-03T09:59:03.983Z,99.90
2023-05-03T10:04:08.368Z,99.90
2023-05-03T10:09:16.673Z,99.90
2023-05-03T10:14:19.319Z,99.90
2023-05-03T10:19:28.823Z,99.90
2023-05-03T10:24:31.025Z,99.90
2023-05-03T10:29:50.376Z,99.90
2023-05-03T10:34:58.376Z,99.90
2023-05-03T10:40:07.989Z,99.90
2023-05-03T10:45:12.809Z,99.90
2023-05-03T10:50:29.262Z,99.90
2023-05-03T10:55:31.446Z,99.90
2023-05-03T11:00:39.194Z,99.90
2023-05-03T11:05:43.551Z,99.90
2023-05-03T11:10:46.512Z,99.90
2023-05-03T11:15:48.870Z,99.90
2023-05-03T11:20:53.917Z,99.90
2023-05-03T11:25:57.903Z,99.90
2023-05-03T11:31:02.207Z,99.90
2023-05-03T11:36:08.407Z,99.90
2023-05-03T11:41:16.596Z,99.90
2023-05-03T11:46:21.949Z,99.90
2023-05-03T11:51:27.346Z,99.90
2023-05-03T11:56:29.415Z,99.90
2023-05-03T12:01:32.226Z,99.90
2023-05-03T12:06:37.456Z,99.90
2023-05-03T12:11:45.133Z,99.90
2023-05-03T12:16:50.857Z,99.90
2023-05-03T12:22:09.391Z,99.90
2023-05-03T12:27:19.397Z,99.90
2023-05-03T12:32:23.112Z,99.90
2023-05-03T12:37:27.774Z,99.90
2023-05-03T12:42:33.016Z,99.50
2023-05-03T12:47:37.489Z,99.00
2023-05-03T12:52:45.149Z,98.20
2023-05-03T12:57:59.046Z,96.50
2023-05-03T13:03:20.740Z,95.80
2023-05-03T13:08:33.520Z,96.10
2023-05-03T13:13:37.474Z,94.60
2023-05-03T13:18:39.753Z,95.80
2023-05-03T13:23:43.368Z,95.00
2023-05-03T13:28:45.170Z,95.00
2023-05-03T13:33:47.026Z,93.60
2023-05-03T13:38:52.012Z,93.50
2023-05-03T13:43:54.310Z,92.60
2023-05-03T13:48:56.806Z,92.50
2023-05-03T13:54:00.952Z,91.80
2023-05-03T13:59:03.285Z,90.30
2023-05-03T14:04:06.323Z,91.50
2023-05-03T14:09:11.027Z,92.00
2023-05-03T14:14:12.868Z,90.60
2023-05-03T14:19:17.620Z,91.60
2023-05-03T14:24:21.178Z,90.60
2023-05-03T14:29:23.831Z,91.60
2023-05-03T14:34:25.869Z,91.10
2023-05-03T14:39:29.433Z,90.20
2023-05-03T14:44:31.692Z,91.90
2023-05-03T14:49:40.507Z,92.00
2023-05-03T14:54:43.924Z,92.30
2023-05-03T14:59:47.466Z,90.50
2023-05-03T15:04:50.489Z,92.10
2023-05-03T15:09:53.911Z,92.50
2023-05-03T15:14:56.006Z,94.60
2023-05-03T15:19:57.931Z,93.70
2023-05-03T15:25:01.611Z,94.30
2023-05-03T15:30:04.437Z,93.80
2023-05-03T15:35:07.689Z,94.50
2023-05-03T15:40:13.770Z,95.60
2023-05-03T15:45:15.924Z,95.50
2023-05-03T15:50:17.952Z,96.30
2023-05-03T15:55:21.431Z,95.80
2023-05-03T16:00:25.614Z,96.50
2023-05-03T16:05:28.072Z,96.60
2023-05-03T16:10:33.139Z,96.20
2023-05-03T16:15:35.494Z,96.60
2023-05-03T16:20:38.021Z,96.30
2023-05-03T16:25:41.580Z,96.50
2023-05-03T16:30:43.916Z,97.60
2023-05-03T16:35:46.157Z,97.70
2023-05-03T16:40:49.780Z,98.30
2023-05-03T16:45:58.469Z,99.60
2023-05-03T16:51:00.773Z,99.90
2023-05-03T16:56:04.442Z,99.90
2023-05-03T17:01:07.997Z,99.90
2023-05-03T17:06:10.406Z,99.90
2023-05-03T17:11:15.123Z,99.90
2023-05-03T17:16:18.552Z,99.90
2023-05-03T17:21:20.972Z,99.90
2023-05-03T17:26:24.825Z,99.90
2023-05-03T17:31:26.821Z,99.90
2023-05-03T17:36:29.803Z,99.90
2023-05-03T17:41:33.919Z,99.90
2023-05-03T17:46:36.660Z,99.90
2023-05-03T17:51:38.745Z,99.90
2023-05-03T17:56:44.861Z,99.90
2023-05-03T18:01:49.297Z,99.90
2023-05-03T18:06:55.839Z,99.90
2023-05-03T18:12:00.220Z,99.90
2023-05-03T18:17:05.861Z,99.90
2023-05-03T18:22:08.689Z,99.90
2023-05-03T18:27:13.726Z,99.90
2023-05-03T18:32:22.807Z,99.90
2023-05-03T18:37:25.656Z,99.90
2023-05-03T18:43:02.085Z,99.90
2023-05-03T18:48:14.880Z,99.90
2023-05-03T18:53:18.164Z,99.90
2023-05-03T18:58:23.113Z,99.90
2023-05-03T19:03:25.722Z,99.90
2023-05-03T19:08:28.940Z,99.90
2023-05-03T19:13:34.153Z,99.90
2023-05-03T19:18:38.055Z,99.90
2023-05-03T19:23:40.944Z,99.90
2023-05-03T19:28:46.565Z,99.90
2023-05-03T19:33:49.184Z,99.90
2023-05-03T19:38:52.163Z,99.90
2023-05-03T19:43:58.322Z,99.90
2023-05-03T19:49:01.047Z,99.90
2023-05-03T19:54:04.053Z,99.90
2023-05-03T19:59:08.100Z,99.90
2023-05-03T20:04:12.496Z,99.90
2023-05-03T20:09:14.906Z,99.90
2023-05-03T20:14:18.948Z,99.90
2023-05-03T20:19:23.540Z,99.90
2023-05-03T20:24:25.887Z,99.90
2023-05-03T20:29:29.664Z,99.90
2023-05-03T20:34:31.806Z,99.90
2023-05-03T20:39:35.451Z,99.90
2023-05-03T20:44:39.321Z,99.90
2023-05-03T20:49:41.333Z,99.90
2023-05-03T20:54:45.631Z,99.90
2023-05-03T20:59:49.258Z,99.90
2023-05-03T21:04:51.579Z,99.90
2023-05-03T21:09:53.552Z,99.90
2023-05-03T21:14:57.153Z,99.90
2023-05-03T21:19:58.939Z,99.90
2023-05-03T21:25:01.353Z,99.90
2023-05-03T21:30:05.369Z,99.90
2023-05-03T21:35:09.358Z,99.90
2023-05-03T21:40:13.381Z,99.90
2023-05-03T21:45:16.949Z,99.90
2023-05-03T21:50:19.775Z,99.90
2023-05-03T21:55:22.204Z,99.90
2023-05-03T22:00:27.480Z,99.90
2023-05-03T22:05:29.326Z,99.90
2023-05-03T22:10:31.477Z,99.90
2023-05-03T22:15:36.141Z,99.90
2023-05-03T22:20:38.393Z,99.90
2023-05-03T22:25:41.116Z,99.90
2023-05-03T22:30:44.470Z,99.90
2023-05-03T22:35:46.564Z,99.90
2023-05-03T22:40:48.669Z,99.90
2023-05-03T22:45:52.158Z,99.90
2023-05-03T22:50:54.112Z,99.90
2023-05-03T22:56:00.985Z,99.90
2023-05-03T23:01:05.653Z,99.90
2023-05-03T23:06:08.494Z,99.90
2023-05-03T23:11:10.568Z,99.90
2023-05-03T23:16:14.750Z,99.90
2023-05-03T23:21:16.845Z,99.90
2023-05-03T23:26:18.882Z,99.90
2023-05-03T23:31:22.837Z,99.90
2023-05-03T23:36:25.270Z,99.90
2023-05-03T23:41:27.359Z,99.90
2023-05-03T23:46:31.240Z,99.90
2023-05-03T23:51:33.070Z,99.90
2023-05-03T23:56:35.243Z,99.90
